sensor_id;sensor_type;location;lat;lon;timestamp;pressure;altitude;pressure_sealevel;temperature;humidity
36664;BME280;53333;51.976;20.144;2023-12-20T00:00:16;99374.22;;;7.15;72.31
36664;BME280;53333;51.976;20.144;2023-12-20T00:02:49;99381.31;;;7.15;72.29
36664;BME280;53333;51.976;20.144;2023-12-20T00:05:22;99373.34;;;7.15;72.28
36664;BME280;53333;51.976;20.144;2023-12-20T00:07:55;99376.06;;;7.13;72.39
36664;BME280;53333;51.976;20.144;2023-12-20T00:10:28;99373.53;;;7.12;72.45
36664;BME280;53333;51.976;20.144;2023-12-20T00:13:01;99368.28;;;7.10;72.35
36664;BME280;53333;51.976;20.144;2023-12-20T00:15:35;99373.66;;;7.08;72.64
36664;BME280;53333;51.976;20.144;2023-12-20T00:18:08;99375.44;;;7.08;72.63
36664;BME280;53333;51.976;20.144;2023-12-20T00:20:41;99368.34;;;7.08;72.74
36664;BME280;53333;51.976;20.144;2023-12-20T00:23:14;99368.44;;;7.07;72.58
36664;BME280;53333;51.976;20.144;2023-12-20T00:25:47;99364.88;;;7.06;72.70
36664;BME280;53333;51.976;20.144;2023-12-20T00:28:20;99365.78;;;7.07;72.54
36664;BME280;53333;51.976;20.144;2023-12-20T00:30:54;99367.47;;;7.08;72.80
36664;BME280;53333;51.976;20.144;2023-12-20T00:33:27;99360.38;;;7.08;72.80
36664;BME280;53333;51.976;20.144;2023-12-20T00:36:01;99362.09;;;7.09;72.86
36664;BME280;53333;51.976;20.144;2023-12-20T00:38:33;99358.59;;;7.09;72.84
36664;BME280;53333;51.976;20.144;2023-12-20T00:41:06;99353.28;;;7.09;72.74
36664;BME280;53333;51.976;20.144;2023-12-20T00:43:39;99345.31;;;7.09;72.81
36664;BME280;53333;51.976;20.144;2023-12-20T00:46:14;99348.81;;;7.09;72.98
36664;BME280;53333;51.976;20.144;2023-12-20T00:48:47;99344.47;;;7.08;72.96
36664;BME280;53333;51.976;20.144;2023-12-20T00:51:19;99353.19;;;7.11;72.78
36664;BME280;53333;51.976;20.144;2023-12-20T00:53:53;99347.03;;;7.10;72.86
36664;BME280;53333;51.976;20.144;2023-12-20T00:56:27;99341.66;;;7.12;72.91
36664;BME280;53333;51.976;20.144;2023-12-20T00:59:00;99346.09;;;7.11;72.77
36664;BME280;53333;51.976;20.144;2023-12-20T01:01:40;99341.56;;;7.13;73.01
36664;BME280;53333;51.976;20.144;2023-12-20T01:04:13;99342.50;;;7.12;73.03
36664;BME280;53333;51.976;20.144;2023-12-20T01:06:46;99341.66;;;7.12;72.89
36664;BME280;53333;51.976;20.144;2023-12-20T01:09:19;99333.69;;;7.12;72.96
36664;BME280;53333;51.976;20.144;2023-12-20T01:11:54;99339.00;;;7.12;73.22
36664;BME280;53333;51.976;20.144;2023-12-20T01:14:27;99331.94;;;7.11;73.12
36664;BME280;53333;51.976;20.144;2023-12-20T01:17:02;99333.69;;;7.12;73.36
36664;BME280;53333;51.976;20.144;2023-12-20T01:19:34;99330.00;;;7.14;73.15
36664;BME280;53333;51.976;20.144;2023-12-20T01:22:08;99322.88;;;7.15;73.20
36664;BME280;53333;51.976;20.144;2023-12-20T01:24:41;99321.13;;;7.15;73.14
36664;BME280;53333;51.976;20.144;2023-12-20T01:27:14;99325.47;;;7.16;73.04
36664;BME280;53333;51.976;20.144;2023-12-20T01:29:47;99332.53;;;7.17;73.29
36664;BME280;53333;51.976;20.144;2023-12-20T01:32:21;99334.31;;;7.17;72.99
36664;BME280;53333;51.976;20.144;2023-12-20T01:34:54;99323.63;;;7.18;73.29
36664;BME280;53333;51.976;20.144;2023-12-20T01:37:32;99317.34;;;7.19;73.21
36664;BME280;53333;51.976;20.144;2023-12-20T01:40:05;99315.66;;;7.18;73.04
36664;BME280;53333;51.976;20.144;2023-12-20T01:42:40;99313.94;;;7.17;73.33
36664;BME280;53333;51.976;20.144;2023-12-20T01:45:13;99307.25;;;7.27;72.75
36664;BME280;53333;51.976;20.144;2023-12-20T01:47:47;99306.72;;;7.19;72.85
36664;BME280;53333;51.976;20.144;2023-12-20T01:50:21;99298.00;;;7.17;73.02
36664;BME280;53333;51.976;20.144;2023-12-20T01:52:55;99292.75;;;7.16;73.08
36664;BME280;53333;51.976;20.144;2023-12-20T01:55:31;99292.75;;;7.16;73.24
36664;BME280;53333;51.976;20.144;2023-12-20T01:58:06;99295.41;;;7.16;73.32
36664;BME280;53333;51.976;20.144;2023-12-20T02:00:39;99290.88;;;7.18;73.38
36664;BME280;53333;51.976;20.144;2023-12-20T02:03:14;99284.72;;;7.17;73.31
36664;BME280;53333;51.976;20.144;2023-12-20T02:05:47;99273.16;;;7.18;73.45
36664;BME280;53333;51.976;20.144;2023-12-20T02:08:20;99271.44;;;7.17;73.46
36664;BME280;53333;51.976;20.144;2023-12-20T02:10:54;99281.13;;;7.18;73.40
36664;BME280;53333;51.976;20.144;2023-12-20T02:13:27;99285.03;;;7.28;72.97
36664;BME280;53333;51.976;20.144;2023-12-20T02:16:00;99285.56;;;7.18;73.12
36664;BME280;53333;51.976;20.144;2023-12-20T02:18:34;99275.00;;;7.16;73.25
36664;BME280;53333;51.976;20.144;2023-12-20T02:21:09;99260.94;;;7.14;73.40
36664;BME280;53333;51.976;20.144;2023-12-20T02:23:43;99261.03;;;7.13;73.54
36664;BME280;53333;51.976;20.144;2023-12-20T02:26:16;99264.47;;;7.15;73.60
36664;BME280;53333;51.976;20.144;2023-12-20T02:28:50;99257.84;;;7.23;73.18
36664;BME280;53333;51.976;20.144;2023-12-20T02:31:23;99263.69;;;7.13;73.27
36664;BME280;53333;51.976;20.144;2023-12-20T02:33:56;99248.78;;;7.10;73.23
36664;BME280;53333;51.976;20.144;2023-12-20T02:36:29;99249.63;;;7.11;73.32
36664;BME280;53333;51.976;20.144;2023-12-20T02:39:03;99239.00;;;7.11;73.66
36664;BME280;53333;51.976;20.144;2023-12-20T02:41:36;99247.81;;;7.11;73.56
36664;BME280;53333;51.976;20.144;2023-12-20T02:44:09;99252.28;;;7.11;73.55
36664;BME280;53333;51.976;20.144;2023-12-20T02:46:42;99251.44;;;7.10;73.39
36664;BME280;53333;51.976;20.144;2023-12-20T02:49:15;99249.69;;;7.09;73.56
36664;BME280;53333;51.976;20.144;2023-12-20T02:51:48;99245.25;;;7.09;73.54
36664;BME280;53333;51.976;20.144;2023-12-20T02:54:22;99245.31;;;7.08;73.69
36664;BME280;53333;51.976;20.144;2023-12-20T02:56:55;99243.53;;;7.08;73.43
36664;BME280;53333;51.976;20.144;2023-12-20T02:59:28;99246.97;;;7.11;73.49
36664;BME280;53333;51.976;20.144;2023-12-20T03:02:01;99239.84;;;7.11;73.39
36664;BME280;53333;51.976;20.144;2023-12-20T03:04:34;99245.09;;;7.13;73.45
36664;BME280;53333;51.976;20.144;2023-12-20T03:07:07;99245.94;;;7.13;73.26
36664;BME280;53333;51.976;20.144;2023-12-20T03:09:41;99237.13;;;7.13;73.27
36664;BME280;53333;51.976;20.144;2023-12-20T03:12:34;99228.38;;;7.11;73.20
36664;BME280;53333;51.976;20.144;2023-12-20T03:15:07;99238.16;;;7.10;73.31
36664;BME280;53333;51.976;20.144;2023-12-20T03:17:40;99239.06;;;7.09;73.29
36664;BME280;53333;51.976;20.144;2023-12-20T03:20:14;99242.66;;;7.08;73.25
36664;BME280;53333;51.976;20.144;2023-12-20T03:22:47;99233.91;;;7.06;73.43
36664;BME280;53333;51.976;20.144;2023-12-20T03:25:21;99240.97;;;7.07;73.40
36664;BME280;53333;51.976;20.144;2023-12-20T03:27:54;99246.13;;;7.10;73.46
36664;BME280;53333;51.976;20.144;2023-12-20T03:30:27;99243.22;;;7.15;73.41
36664;BME280;53333;51.976;20.144;2023-12-20T03:33:00;99228.78;;;7.20;73.61
36664;BME280;53333;51.976;20.144;2023-12-20T03:35:33;99231.28;;;7.23;73.33
36664;BME280;53333;51.976;20.144;2023-12-20T03:38:05;99229.47;;;7.24;73.32
36664;BME280;53333;51.976;20.144;2023-12-20T03:40:40;99228.56;;;7.25;73.47
36664;BME280;53333;51.976;20.144;2023-12-20T03:43:13;99225.91;;;7.25;73.45
36664;BME280;53333;51.976;20.144;2023-12-20T03:45:46;99216.13;;;7.25;73.39
36664;BME280;53333;51.976;20.144;2023-12-20T03:48:19;99223.31;;;7.23;73.48
36664;BME280;53333;51.976;20.144;2023-12-20T03:50:52;99227.78;;;7.23;73.54
36664;BME280;53333;51.976;20.144;2023-12-20T03:53:24;99224.31;;;7.21;73.68
36664;BME280;53333;51.976;20.144;2023-12-20T03:55:59;99226.28;;;7.17;73.51
36664;BME280;53333;51.976;20.144;2023-12-20T03:58:32;99228.94;;;7.17;73.44
36664;BME280;53333;51.976;20.144;2023-12-20T04:01:09;99228.16;;;7.15;73.70
36664;BME280;53333;51.976;20.144;2023-12-20T04:03:43;99235.25;;;7.15;73.70
36664;BME280;53333;51.976;20.144;2023-12-20T04:06:16;99228.22;;;7.14;73.75
36664;BME280;53333;51.976;20.144;2023-12-20T04:08:50;99238.78;;;7.15;73.64
36664;BME280;53333;51.976;20.144;2023-12-20T04:11:25;99230.28;;;7.26;73.28
36664;BME280;53333;51.976;20.144;2023-12-20T04:13:57;99229.06;;;7.14;73.27
36664;BME280;53333;51.976;20.144;2023-12-20T04:16:29;99220.34;;;7.12;73.53
36664;BME280;53333;51.976;20.144;2023-12-20T04:19:02;99236.28;;;7.12;73.61
36664;BME280;53333;51.976;20.144;2023-12-20T04:21:36;99239.84;;;7.11;73.69
36664;BME280;53333;51.976;20.144;2023-12-20T04:24:08;99238.16;;;7.10;73.70
36664;BME280;53333;51.976;20.144;2023-12-20T04:26:43;99223.28;;;7.06;73.65
36664;BME280;53333;51.976;20.144;2023-12-20T04:29:16;99231.34;;;7.04;73.87
36664;BME280;53333;51.976;20.144;2023-12-20T04:31:48;99226.94;;;7.03;74.02
36664;BME280;53333;51.976;20.144;2023-12-20T04:34:22;99228.69;;;7.04;74.01
36664;BME280;53333;51.976;20.144;2023-12-20T04:36:55;99225.16;;;7.04;73.92
36664;BME280;53333;51.976;20.144;2023-12-20T04:39:29;99226.88;;;7.05;74.03
36664;BME280;53333;51.976;20.144;2023-12-20T04:42:04;99211.81;;;7.05;74.02
36664;BME280;53333;51.976;20.144;2023-12-20T04:44:37;99217.97;;;7.06;73.98
36664;BME280;53333;51.976;20.144;2023-12-20T04:47:10;99214.47;;;7.05;73.97
36664;BME280;53333;51.976;20.144;2023-12-20T04:49:43;99215.41;;;7.04;74.01
36664;BME280;53333;51.976;20.144;2023-12-20T04:52:15;99208.34;;;7.03;74.31
36664;BME280;53333;51.976;20.144;2023-12-20T04:54:49;99214.56;;;7.04;74.05
36664;BME280;53333;51.976;20.144;2023-12-20T04:57:23;99211.91;;;7.04;73.92
36664;BME280;53333;51.976;20.144;2023-12-20T04:59:56;99206.59;;;7.04;74.05
36664;BME280;53333;51.976;20.144;2023-12-20T05:02:29;99218.13;;;7.03;73.99
36664;BME280;53333;51.976;20.144;2023-12-20T05:05:02;99213.66;;;7.03;73.88
36664;BME280;53333;51.976;20.144;2023-12-20T05:07:35;99213.75;;;7.02;74.10
36664;BME280;53333;51.976;20.144;2023-12-20T05:10:09;99212.97;;;7.00;74.10
36664;BME280;53333;51.976;20.144;2023-12-20T05:12:43;99206.44;;;7.07;73.59
36664;BME280;53333;51.976;20.144;2023-12-20T05:15:16;99206.00;;;6.97;73.67
36664;BME280;53333;51.976;20.144;2023-12-20T05:17:49;99206.94;;;6.96;73.90
36664;BME280;53333;51.976;20.144;2023-12-20T05:20:22;99211.31;;;6.97;73.88
36664;BME280;53333;51.976;20.144;2023-12-20T05:22:55;99206.19;;;6.94;73.99
36664;BME280;53333;51.976;20.144;2023-12-20T05:25:28;99206.19;;;6.94;74.00
36664;BME280;53333;51.976;20.144;2023-12-20T05:28:02;99207.19;;;6.91;74.17
36664;BME280;53333;51.976;20.144;2023-12-20T05:30:35;99209.81;;;6.91;74.12
36664;BME280;53333;51.976;20.144;2023-12-20T05:33:08;99203.75;;;6.89;74.12
36664;BME280;53333;51.976;20.144;2023-12-20T05:35:41;99202.78;;;6.90;74.08
36664;BME280;53333;51.976;20.144;2023-12-20T05:38:14;99202.00;;;6.88;74.18
36664;BME280;53333;51.976;20.144;2023-12-20T05:40:47;99209.91;;;6.90;74.06
36664;BME280;53333;51.976;20.144;2023-12-20T05:43:21;99209.13;;;6.88;74.30
36664;BME280;53333;51.976;20.144;2023-12-20T05:45:54;99205.59;;;6.87;74.09
36664;BME280;53333;51.976;20.144;2023-12-20T05:48:27;99213.56;;;6.87;74.16
36664;BME280;53333;51.976;20.144;2023-12-20T05:51:00;99209.06;;;6.89;74.40
36664;BME280;53333;51.976;20.144;2023-12-20T05:53:33;99205.44;;;6.90;74.19
36664;BME280;53333;51.976;20.144;2023-12-20T05:56:06;99204.66;;;6.88;74.19
36664;BME280;53333;51.976;20.144;2023-12-20T05:58:41;99205.59;;;6.87;74.21
36664;BME280;53333;51.976;20.144;2023-12-20T06:01:14;99202.78;;;6.90;74.18
36664;BME280;53333;51.976;20.144;2023-12-20T06:03:48;99214.28;;;6.91;74.21
36664;BME280;53333;51.976;20.144;2023-12-20T06:06:22;99203.59;;;6.93;74.13
36664;BME280;53333;51.976;20.144;2023-12-20T06:08:55;99205.38;;;6.92;74.12
36664;BME280;53333;51.976;20.144;2023-12-20T06:11:28;99206.25;;;6.93;74.16
36664;BME280;53333;51.976;20.144;2023-12-20T06:14:03;99207.19;;;6.91;74.26
36664;BME280;53333;51.976;20.144;2023-12-20T06:16:35;99205.44;;;6.90;74.23
36664;BME280;53333;51.976;20.144;2023-12-20T06:19:08;99203.66;;;6.91;74.26
36664;BME280;53333;51.976;20.144;2023-12-20T06:21:41;99203.75;;;6.89;74.36
36664;BME280;53333;51.976;20.144;2023-12-20T06:24:16;99199.44;;;6.87;74.39
36664;BME280;53333;51.976;20.144;2023-12-20T06:26:49;99204.66;;;6.88;74.30
36664;BME280;53333;51.976;20.144;2023-12-20T06:29:23;99203.81;;;6.88;74.35
36664;BME280;53333;51.976;20.144;2023-12-20T06:31:56;99202.00;;;6.88;74.18
36664;BME280;53333;51.976;20.144;2023-12-20T06:34:29;99203.88;;;6.86;74.34
36664;BME280;53333;51.976;20.144;2023-12-20T06:37:02;99200.34;;;6.86;74.33
36664;BME280;53333;51.976;20.144;2023-12-20T06:39:36;99198.66;;;6.85;74.18
36664;BME280;53333;51.976;20.144;2023-12-20T06:42:09;99197.00;;;6.82;74.30
36664;BME280;53333;51.976;20.144;2023-12-20T06:44:44;99198.88;;;6.80;74.35
36664;BME280;53333;51.976;20.144;2023-12-20T06:47:17;99198.94;;;6.79;74.50
36664;BME280;53333;51.976;20.144;2023-12-20T06:49:49;99199.94;;;6.76;74.49
36664;BME280;53333;51.976;20.144;2023-12-20T06:52:23;99199.16;;;6.74;74.48
36664;BME280;53333;51.976;20.144;2023-12-20T06:54:56;99202.75;;;6.73;74.51
36664;BME280;53333;51.976;20.144;2023-12-20T06:57:29;99204.63;;;6.71;74.42
36664;BME280;53333;51.976;20.144;2023-12-20T07:00:04;99199.38;;;6.69;74.63
36664;BME280;53333;51.976;20.144;2023-12-20T07:02:37;99205.47;;;6.71;74.54
36664;BME280;53333;51.976;20.144;2023-12-20T07:05:10;99204.53;;;6.72;74.48
36664;BME280;53333;51.976;20.144;2023-12-20T07:07:43;99208.06;;;6.73;74.51
36664;BME280;53333;51.976;20.144;2023-12-20T07:10:17;99207.97;;;6.75;74.48
36664;BME280;53333;51.976;20.144;2023-12-20T07:12:50;99200.91;;;6.75;74.45
36664;BME280;53333;51.976;20.144;2023-12-20T07:15:25;99206.28;;;6.73;74.48
36664;BME280;53333;51.976;20.144;2023-12-20T07:17:58;99201.91;;;6.72;74.33
36664;BME280;53333;51.976;20.144;2023-12-20T07:20:32;99207.19;;;6.72;74.49
36664;BME280;53333;51.976;20.144;2023-12-20T07:23:05;99205.41;;;6.73;74.50
36664;BME280;53333;51.976;20.144;2023-12-20T07:25:38;99207.97;;;6.75;74.44
36664;BME280;53333;51.976;20.144;2023-12-20T07:28:11;99214.03;;;6.78;74.52
36664;BME280;53333;51.976;20.144;2023-12-20T07:30:45;99210.50;;;6.78;74.49
36664;BME280;53333;51.976;20.144;2023-12-20T07:33:19;99213.06;;;6.79;74.37
36664;BME280;53333;51.976;20.144;2023-12-20T07:35:52;99213.06;;;6.79;74.39
36664;BME280;53333;51.976;20.144;2023-12-20T07:38:25;99221.03;;;6.79;74.45
36664;BME280;53333;51.976;20.144;2023-12-20T07:40:58;99216.69;;;6.78;74.42
36664;BME280;53333;51.976;20.144;2023-12-20T07:43:31;99213.16;;;6.78;74.39
36664;BME280;53333;51.976;20.144;2023-12-20T07:46:06;99221.03;;;6.79;74.50
36664;BME280;53333;51.976;20.144;2023-12-20T07:48:39;99220.09;;;6.80;74.43
36664;BME280;53333;51.976;20.144;2023-12-20T07:51:16;99213.94;;;6.80;74.21
36664;BME280;53333;51.976;20.144;2023-12-20T07:53:49;99212.94;;;6.82;74.42
36664;BME280;53333;51.976;20.144;2023-12-20T07:56:22;99219.97;;;6.83;74.34
36664;BME280;53333;51.976;20.144;2023-12-20T07:58:55;99218.94;;;6.86;74.34
36664;BME280;53333;51.976;20.144;2023-12-20T08:01:32;99221.59;;;6.86;74.51
36664;BME280;53333;51.976;20.144;2023-12-20T08:04:05;99207.47;;;6.85;74.37
36664;BME280;53333;51.976;20.144;2023-12-20T08:06:38;99210.91;;;6.87;74.33
36664;BME280;53333;51.976;20.144;2023-12-20T08:09:11;99210.06;;;6.87;74.32
36664;BME280;53333;51.976;20.144;2023-12-20T08:11:48;99209.97;;;6.88;74.37
36664;BME280;53333;51.976;20.144;2023-12-20T08:14:29;99212.56;;;6.90;74.41
36664;BME280;53333;51.976;20.144;2023-12-20T08:17:12;99214.28;;;6.91;74.38
36664;BME280;53333;51.976;20.144;2023-12-20T08:19:47;99211.63;;;6.91;74.42
36664;BME280;53333;51.976;20.144;2023-12-20T08:22:20;99215.13;;;6.91;74.50
36664;BME280;53333;51.976;20.144;2023-12-20T08:24:53;99208.91;;;6.93;74.33
36664;BME280;53333;51.976;20.144;2023-12-20T08:27:26;99210.59;;;6.94;74.35
36664;BME280;53333;51.976;20.144;2023-12-20T08:30:00;99203.59;;;6.93;74.16
36664;BME280;53333;51.976;20.144;2023-12-20T08:32:34;99208.97;;;6.91;74.41
36664;BME280;53333;51.976;20.144;2023-12-20T08:35:07;99203.59;;;6.93;74.37
36664;BME280;53333;51.976;20.144;2023-12-20T08:37:40;99201.72;;;6.95;74.27
36664;BME280;53333;51.976;20.144;2023-12-20T08:40:13;99199.91;;;6.95;74.16
36664;BME280;53333;51.976;20.144;2023-12-20T08:42:46;99207.88;;;6.95;74.31
36664;BME280;53333;51.976;20.144;2023-12-20T08:45:19;99207.88;;;6.95;74.05
36664;BME280;53333;51.976;20.144;2023-12-20T08:47:53;99209.69;;;6.95;74.22
36664;BME280;53333;51.976;20.144;2023-12-20T08:50:30;99202.63;;;6.94;74.30
36664;BME280;53333;51.976;20.144;2023-12-20T08:53:04;99207.94;;;6.94;74.18
36664;BME280;53333;51.976;20.144;2023-12-20T08:55:37;99207.03;;;6.95;74.17
36664;BME280;53333;51.976;20.144;2023-12-20T08:58:10;99205.28;;;6.94;74.35
36664;BME280;53333;51.976;20.144;2023-12-20T09:00:43;99200.00;;;6.94;74.28
36664;BME280;53333;51.976;20.144;2023-12-20T09:03:18;99204.44;;;6.93;74.27
36664;BME280;53333;51.976;20.144;2023-12-20T09:05:51;99200.94;;;6.93;74.22
36664;BME280;53333;51.976;20.144;2023-12-20T09:08:23;99202.56;;;6.95;74.34
36664;BME280;53333;51.976;20.144;2023-12-20T09:10:56;99197.25;;;6.95;74.20
36664;BME280;53333;51.976;20.144;2023-12-20T09:13:29;99189.38;;;6.94;74.34
36664;BME280;53333;51.976;20.144;2023-12-20T09:16:04;99194.75;;;6.92;74.24
36664;BME280;53333;51.976;20.144;2023-12-20T09:18:38;99192.09;;;6.92;74.58
36664;BME280;53333;51.976;20.144;2023-12-20T09:21:11;99188.53;;;6.93;74.38
36664;BME280;53333;51.976;20.144;2023-12-20T09:23:46;99185.72;;;6.96;74.25
36664;BME280;53333;51.976;20.144;2023-12-20T09:26:18;99184.75;;;6.97;74.26
36664;BME280;53333;51.976;20.144;2023-12-20T09:28:52;99186.50;;;6.98;74.32
36664;BME280;53333;51.976;20.144;2023-12-20T09:31:25;99189.16;;;6.98;74.35
36664;BME280;53333;51.976;20.144;2023-12-20T09:34:00;99181.09;;;7.00;74.33
36664;BME280;53333;51.976;20.144;2023-12-20T09:36:34;99181.88;;;7.02;74.20
36664;BME280;53333;51.976;20.144;2023-12-20T09:39:08;99176.56;;;7.02;74.43
36664;BME280;53333;51.976;20.144;2023-12-20T09:41:43;99179.16;;;7.03;74.25
36664;BME280;53333;51.976;20.144;2023-12-20T09:44:16;99180.94;;;7.03;74.34
36664;BME280;53333;51.976;20.144;2023-12-20T09:46:50;99180.03;;;7.04;74.35
36664;BME280;53333;51.976;20.144;2023-12-20T09:49:27;99172.06;;;7.04;74.21
36664;BME280;53333;51.976;20.144;2023-12-20T09:52:00;99171.25;;;7.02;74.26
36664;BME280;53333;51.976;20.144;2023-12-20T09:54:34;99172.13;;;7.02;74.26
36664;BME280;53333;51.976;20.144;2023-12-20T09:57:06;99158.78;;;7.04;74.31
36664;BME280;53333;51.976;20.144;2023-12-20T09:59:40;99154.31;;;7.04;74.22
36664;BME280;53333;51.976;20.144;2023-12-20T10:02:13;99156.06;;;7.05;74.23
36664;BME280;53333;51.976;20.144;2023-12-20T10:04:49;99159.72;;;7.03;74.20
36664;BME280;53333;51.976;20.144;2023-12-20T10:07:22;99152.66;;;7.02;74.19
36664;BME280;53333;51.976;20.144;2023-12-20T10:09:55;99151.91;;;7.00;74.19
36664;BME280;53333;51.976;20.144;2023-12-20T10:12:29;99146.59;;;7.00;74.23
36664;BME280;53333;51.976;20.144;2023-12-20T10:15:04;99150.09;;;7.00;74.32
36664;BME280;53333;51.976;20.144;2023-12-20T10:17:37;99140.75;;;7.11;74.00
36664;BME280;53333;51.976;20.144;2023-12-20T10:20:11;99139.47;;;7.00;74.13
36664;BME280;53333;51.976;20.144;2023-12-20T10:22:44;99142.03;;;7.02;74.19
36664;BME280;53333;51.976;20.144;2023-12-20T10:25:18;99146.34;;;7.04;74.07
36664;BME280;53333;51.976;20.144;2023-12-20T10:28:09;99141.66;;;7.09;74.40
36664;BME280;53333;51.976;20.144;2023-12-20T10:30:42;99137.38;;;7.07;74.21
36664;BME280;53333;51.976;20.144;2023-12-20T10:33:23;99139.09;;;7.08;74.39
36664;BME280;53333;51.976;20.144;2023-12-20T10:35:58;99136.59;;;7.05;74.32
36664;BME280;53333;51.976;20.144;2023-12-20T10:38:31;99126.91;;;7.04;74.18
36664;BME280;53333;51.976;20.144;2023-12-20T10:41:05;99125.34;;;7.00;74.13
36664;BME280;53333;51.976;20.144;2023-12-20T10:43:39;99126.44;;;6.96;74.15
36664;BME280;53333;51.976;20.144;2023-12-20T10:46:12;99138.00;;;6.95;74.20
36664;BME280;53333;51.976;20.144;2023-12-20T10:48:46;99126.69;;;6.91;73.97
36664;BME280;53333;51.976;20.144;2023-12-20T10:51:21;99124.09;;;6.89;73.96
36664;BME280;53333;51.976;20.144;2023-12-20T10:53:56;99123.28;;;6.87;73.85
36664;BME280;53333;51.976;20.144;2023-12-20T10:56:32;99125.94;;;6.87;73.87
36664;BME280;53333;51.976;20.144;2023-12-20T10:59:06;99120.88;;;6.83;73.91
36664;BME280;53333;51.976;20.144;2023-12-20T11:01:41;99122.66;;;6.82;73.90
36664;BME280;53333;51.976;20.144;2023-12-20T11:04:18;99116.50;;;6.82;73.93
36664;BME280;53333;51.976;20.144;2023-12-20T11:06:58;99120.00;;;6.82;73.90
36664;BME280;53333;51.976;20.144;2023-12-20T11:09:38;99116.59;;;6.80;73.91
36664;BME280;53333;51.976;20.144;2023-12-20T11:12:16;99113.09;;;6.80;73.90
36664;BME280;53333;51.976;20.144;2023-12-20T11:14:53;99115.75;;;6.80;73.71
36664;BME280;53333;51.976;20.144;2023-12-20T11:17:27;99119.25;;;6.80;73.69
36664;BME280;53333;51.976;20.144;2023-12-20T11:20:05;99111.19;;;6.82;73.45
36664;BME280;53333;51.976;20.144;2023-12-20T11:22:52;99113.78;;;6.83;73.54
36664;BME280;53333;51.976;20.144;2023-12-20T11:25:26;99107.78;;;6.80;73.26
36664;BME280;53333;51.976;20.144;2023-12-20T11:28:09;99105.91;;;6.82;73.16
36664;BME280;53333;51.976;20.144;2023-12-20T11:30:47;99105.97;;;6.80;72.94
36664;BME280;53333;51.976;20.144;2023-12-20T11:33:22;99102.53;;;6.78;72.83
36664;BME280;53333;51.976;20.144;2023-12-20T11:35:59;99092.84;;;6.77;72.43
36664;BME280;53333;51.976;20.144;2023-12-20T11:38:37;99095.50;;;6.77;72.45
36664;BME280;53333;51.976;20.144;2023-12-20T11:41:11;99091.13;;;6.76;72.35
36664;BME280;53333;51.976;20.144;2023-12-20T11:43:43;99094.16;;;6.86;72.21
36664;BME280;53333;51.976;20.144;2023-12-20T11:46:17;99091.13;;;6.76;72.00
36664;BME280;53333;51.976;20.144;2023-12-20T11:48:50;99093.16;;;6.71;72.06
36664;BME280;53333;51.976;20.144;2023-12-20T11:51:23;99084.25;;;6.72;71.99
36664;BME280;53333;51.976;20.144;2023-12-20T11:54:00;99088.63;;;6.73;72.07
36664;BME280;53333;51.976;20.144;2023-12-20T11:56:34;99083.38;;;6.71;72.13
36664;BME280;53333;51.976;20.144;2023-12-20T11:59:08;99085.25;;;6.69;72.07
36664;BME280;53333;51.976;20.144;2023-12-20T12:01:54;99083.47;;;6.70;72.18
36664;BME280;53333;51.976;20.144;2023-12-20T12:04:32;99084.25;;;6.72;72.01
36664;BME280;53333;51.976;20.144;2023-12-20T12:07:05;99081.53;;;6.73;72.19
36664;BME280;53333;51.976;20.144;2023-12-20T12:09:39;99072.63;;;6.75;72.07
36664;BME280;53333;51.976;20.144;2023-12-20T12:12:12;99073.50;;;6.75;72.25
36664;BME280;53333;51.976;20.144;2023-12-20T12:14:45;99069.03;;;6.76;72.20
36664;BME280;53333;51.976;20.144;2023-12-20T12:17:19;99069.88;;;6.76;72.09
36664;BME280;53333;51.976;20.144;2023-12-20T12:20:02;99063.72;;;6.76;72.18
36664;BME280;53333;51.976;20.144;2023-12-20T12:22:36;99072.53;;;6.76;72.17
36664;BME280;53333;51.976;20.144;2023-12-20T12:25:12;99060.22;;;6.75;71.94
36664;BME280;53333;51.976;20.144;2023-12-20T12:27:45;99060.06;;;6.78;72.29
36664;BME280;53333;51.976;20.144;2023-12-20T12:30:18;99063.50;;;6.80;72.03
36664;BME280;53333;51.976;20.144;2023-12-20T12:32:53;99061.63;;;6.82;72.14
36664;BME280;53333;51.976;20.144;2023-12-20T12:35:28;99058.97;;;6.82;72.04
36664;BME280;53333;51.976;20.144;2023-12-20T12:38:01;99055.38;;;6.83;72.05
36664;BME280;53333;51.976;20.144;2023-12-20T12:40:36;99052.72;;;6.83;72.05
36664;BME280;53333;51.976;20.144;2023-12-20T12:43:09;99054.50;;;6.83;71.83
36664;BME280;53333;51.976;20.144;2023-12-20T12:45:42;99048.34;;;6.82;72.13
36664;BME280;53333;51.976;20.144;2023-12-20T12:48:15;99044.00;;;6.81;72.11
36664;BME280;53333;51.976;20.144;2023-12-20T12:50:48;99044.00;;;6.81;71.81
36664;BME280;53333;51.976;20.144;2023-12-20T12:53:23;99043.03;;;6.82;71.80
36664;BME280;53333;51.976;20.144;2023-12-20T12:55:58;99040.47;;;6.81;71.94
36664;BME280;53333;51.976;20.144;2023-12-20T12:58:31;99035.06;;;6.82;71.70
36664;BME280;53333;51.976;20.144;2023-12-20T13:01:04;99025.22;;;6.84;71.57
36664;BME280;53333;51.976;20.144;2023-12-20T13:03:37;99031.41;;;6.85;71.54
36664;BME280;53333;51.976;20.144;2023-12-20T13:06:10;99030.53;;;6.84;71.54
36664;BME280;53333;51.976;20.144;2023-12-20T13:08:43;99032.81;;;6.92;71.40
36664;BME280;53333;51.976;20.144;2023-12-20T13:11:18;99033.19;;;7.02;71.56
36664;BME280;53333;51.976;20.144;2023-12-20T13:13:51;99025.78;;;7.08;70.97
36664;BME280;53333;51.976;20.144;2023-12-20T13:16:24;99026.56;;;7.11;70.81
36664;BME280;53333;51.976;20.144;2023-12-20T13:18:57;99029.28;;;7.09;70.51
36664;BME280;53333;51.976;20.144;2023-12-20T13:21:31;99031.31;;;7.04;70.29
36664;BME280;53333;51.976;20.144;2023-12-20T13:24:05;99034.28;;;6.98;70.16
36664;BME280;53333;51.976;20.144;2023-12-20T13:26:39;99030.88;;;6.96;69.97
36664;BME280;53333;51.976;20.144;2023-12-20T13:29:12;99023.84;;;6.95;69.81
36664;BME280;53333;51.976;20.144;2023-12-20T13:31:45;99014.06;;;6.95;69.54
36664;BME280;53333;51.976;20.144;2023-12-20T13:34:18;99031.72;;;6.96;69.17